Latest Weather Observations for Davis*

IDT60801

Issued at 11:32 am EDT Tuesday 28 March 2017 (issued every 30 minutes, with the page automatically refreshed every 10 minutes)

About weather observations | Map of weather stations | Latest weather observations for ANT | Other Formats
Station Details ID: 300000 Name: DAVIS Lat: -68.57 Lon: 77.97 Height: 18.0 m
Data from the previous 72 hours. | See also: Recent months at Davis*
Date/Time
EDT
Temp
°C
App
Temp
°C
Dew
Point
°C
Rel
Hum
%
Delta-T
°C
Wind Press
QNH
hPa
Press
MSL
hPa
Rain since
9am
mm
Dir  Spd
km/h
Gust
km/h
Spd
kts
Gust
kts
28/11:30am -15.2 -21.2 -17.7 81 - ESE 13 13 7 7 992.8 - -
28/11:00am -15.3 -21.3 -18.0 80 - ESE 13 13 7 7 993.2 993.5 -
28/10:30am -15.1 -20.7 -17.9 79 - ESE 11 13 6 7 993.5 - -
28/10:00am -14.1 -19.3 -16.8 80 - NE 9 11 5 6 993.4 - -
28/09:30am -14.8 -20.4 -17.9 77 - ESE 11 13 6 7 994.0 - -
28/09:00am -14.7 -19.9 -17.8 77 - ESE 9 11 5 6 994.2 - -
28/08:30am -14.7 -19.9 -18.0 76 - ESE 9 11 5 6 994.4 - -
28/08:00am -14.5 -19.7 -17.8 76 - ESE 9 9 5 5 994.6 994.9 -
28/07:30am -14.1 -18.7 -17.4 76 - SE 6 9 3 5 994.8 - -
28/07:00am -12.2 -17.3 -14.8 81 - W 9 11 5 6 994.9 - -
28/06:30am -12.1 -17.5 -14.5 82 - W 11 13 6 7 995.0 - -
28/06:00am -11.9 -17.7 -14.8 79 - W 13 17 7 9 995.1 - -
28/05:30am -11.6 -17.1 -15.3 74 - WSW 11 15 6 8 995.2 - -
28/05:00am -11.4 -18.1 -16.6 65 - WSW 17 19 9 10 995.2 995.5 -
28/04:30am -11.4 -18.1 -16.1 68 - WSW 17 19 9 10 995.3 - -
28/04:00am -11.4 -18.4 -15.8 70 - WSW 19 22 10 12 995.5 - -
28/03:30am -11.2 -17.9 -16.1 67 - WSW 17 19 9 10 995.6 - -
28/03:00am -11.1 -17.7 -15.5 70 - SW 17 20 9 11 995.4 - -
28/02:30am -11.0 -18.2 -14.7 74 - WSW 20 24 11 13 995.5 - -
28/02:00am -10.7 -17.8 -13.5 80 - WSW 20 26 11 14 995.6 995.9 -
28/01:30am -10.5 -18.4 -13.9 76 - WSW 24 26 13 14 995.7 - -
28/01:00am -10.2 -17.6 -13.1 79 - WSW 22 26 12 14 995.7 - -
28/12:30am -9.7 -16.2 -13.1 76 - SW 17 20 9 11 995.6 - -
28/12:00am -9.5 -16.1 -14.5 67 - SW 17 20 9 11 995.6 - -
 
Date/Time
EDT
Temp
°C
App
Temp
°C
Dew
Point
°C
Rel
Hum
%
Delta-T
°C
Wind Press
QNH
hPa
Press
MSL
hPa
Rain since
9am
mm
Dir  Spd
km/h
Gust
km/h
Spd
kts
Gust
kts
27/11:30pm -9.1 -16.0 -13.7 69 - SW 19 22 10 12 995.6 - -
27/11:00pm -8.9 -15.8 -14.1 66 - SW 19 22 10 12 995.5 995.8 -
27/10:30pm -9.1 -16.3 -14.8 63 - SSW 20 26 11 14 995.4 - -
27/10:00pm -9.2 -16.4 -15.1 62 - SSW 20 26 11 14 995.0 - -
27/09:30pm -9.1 -16.2 -14.6 64 - SSW 20 26 11 14 995.1 - -
27/09:00pm -9.2 -16.8 -15.5 60 - SW 22 28 12 15 995.0 - -
27/08:30pm -9.2 -16.4 -16.1 57 - SW 20 30 11 16 994.8 - -
27/08:00pm -9.2 -16.4 -14.9 63 - SW 20 26 11 14 994.8 995.1 -
27/07:30pm -9.2 -16.2 -14.7 64 - SSW 19 22 10 12 994.7 - -
27/07:00pm -9.3 -15.5 -15.6 60 - SSW 15 26 8 14 994.6 - -
27/06:30pm -9.4 -15.6 -15.1 63 - SSW 15 19 8 10 994.3 - -
27/06:00pm -9.7 -15.6 -16.2 59 - SSW 13 19 7 10 994.1 - -
27/05:30pm -9.8 -15.3 -16.7 57 - S 11 15 6 8 993.4 - -
27/05:00pm -9.7 -16.0 -16.8 56 - SSW 15 19 8 10 993.8 994.1 -
27/04:30pm -9.9 -14.6 -15.8 62 - SSW 7 9 4 5 993.8 - -
27/04:00pm -10.3 -14.9 -16.3 61 - SSW 6 7 3 4 993.3 - -
27/03:30pm -10.5 -15.1 -16.5 61 - SSW 6 7 3 4 993.5 - -
27/03:00pm -10.8 -15.4 -17.0 60 - S 6 9 3 5 993.4 - -
27/02:30pm -10.9 -14.4 -17.3 59 - CALM 0 0 0 0 993.2 - -
27/02:00pm -10.9 -15.7 -17.1 60 - NNE 7 11 4 6 993.2 993.5 -
27/01:30pm -11.0 -16.5 -16.8 62 - N 11 15 6 8 992.9 - -
27/01:00pm -11.3 -14.8 -17.5 60 - CALM 0 0 0 0 992.8 - -
27/12:30pm -11.5 -16.1 -17.3 62 - SE 6 7 3 4 992.7 - -
27/12:00pm -11.5 -16.1 -17.9 59 - SE 6 7 3 4 992.7 - -
27/11:30am -11.5 -16.3 -17.3 62 - ESE 7 11 4 6 992.7 - -
27/11:00am -11.3 -17.2 -17.3 61 - NNE 13 17 7 9 992.4 992.7 -
27/10:30am -11.2 -17.9 -17.6 59 - NNE 17 24 9 13 992.3 - -
27/10:00am -11.3 -19.0 -17.7 59 - NNE 22 30 12 16 991.7 - -
27/09:30am -11.2 -19.6 -18.0 57 - NNE 26 32 14 17 991.9 - -
27/09:00am -11.3 -19.0 -17.7 59 - NE 22 33 12 18 991.8 - -
27/08:30am -11.2 -18.5 -18.4 55 - NE 20 30 11 16 991.5 - -
27/08:00am -11.2 -17.9 -18.2 56 - ENE 17 22 9 12 991.4 991.7 -
27/07:30am -11.4 -18.5 -17.6 60 - ENE 19 28 10 15 991.2 - -
27/07:00am -11.2 -17.9 -17.0 62 - ENE 17 24 9 13 991.0 - -
27/06:30am -11.0 -17.3 -17.8 57 - ENE 15 20 8 11 990.7 - -
27/06:00am -11.1 -18.2 -17.9 57 - E 19 22 10 12 990.5 - -
27/05:30am -10.9 -16.9 -17.7 57 - E 13 17 7 9 990.2 - -
27/05:00am -11.0 -17.3 -17.6 58 - E 15 19 8 10 990.0 990.3 -
27/04:30am -11.0 -18.3 -18.0 56 - ENE 20 26 11 14 989.7 - -
27/04:00am -10.8 -17.1 -17.6 57 - E 15 20 8 11 989.8 - -
27/03:30am -10.6 -17.3 -17.4 57 - ENE 17 24 9 13 989.5 - -
27/03:00am -10.4 -17.5 -17.7 55 - ENE 19 20 10 11 989.2 - -
27/02:30am -10.1 -18.5 -17.0 57 - NE 26 35 14 19 988.9 - -
27/02:00am -10.0 -18.8 -17.1 56 - NE 28 35 15 19 988.5 988.8 -
27/01:30am -10.2 -17.4 -16.5 60 - NE 20 28 11 15 988.4 - -
27/01:00am -10.2 -19.4 -16.7 59 - NE 30 37 16 20 987.9 - -
27/12:30am -10.2 -18.2 -15.7 64 - NE 24 30 13 16 987.8 - -
27/12:00am -10.2 -19.9 -15.5 65 - NE 33 44 18 24 987.3 - -
 
Date/Time
EDT
Temp
°C
App
Temp
°C
Dew
Point
°C
Rel
Hum
%
Delta-T
°C
Wind Press
QNH
hPa
Press
MSL
hPa
Rain since
9am
mm
Dir  Spd
km/h
Gust
km/h
Spd
kts
Gust
kts
26/11:30pm -10.2 -19.9 -15.3 66 - NE 33 43 18 23 987.0 - -
26/11:00pm -10.1 -19.6 -15.2 66 - NE 32 39 17 21 986.7 987.0 -
26/10:30pm -10.0 -18.3 -15.5 64 - NE 26 37 14 20 986.4 - -
26/10:00pm -10.1 -19.2 -15.8 63 - NE 30 41 16 22 985.7 - -
26/09:30pm -10.0 -17.0 -15.1 66 - ENE 19 24 10 13 986.0 - -
26/09:00pm -10.0 -16.6 -14.9 67 - ENE 17 22 9 12 985.9 - -
26/08:30pm -10.2 -17.4 -15.3 66 - NE 20 26 11 14 985.7 - -
26/08:00pm -10.0 -18.3 -14.9 67 - NE 26 33 14 18 985.4 985.6 -
26/07:30pm -10.2 -17.8 -15.5 65 - NE 22 30 12 16 985.2 - -
26/07:00pm -10.2 -17.8 -15.7 64 - NE 22 28 12 15 984.9 - -
26/06:30pm -10.3 -17.9 -15.4 66 - NE 22 30 12 16 984.7 - -
26/06:00pm -10.3 -19.0 -16.0 63 - NE 28 35 15 19 984.4 - -
26/05:30pm -10.2 -19.0 -17.3 56 - NE 28 35 15 19 984.4 - -
26/05:00pm -10.2 -19.5 -19.1 48 - NNE 30 35 16 19 984.1 984.3 -
26/04:30pm -10.2 -18.7 -19.1 48 - NE 26 39 14 21 984.1 - -
26/04:00pm -10.3 -19.9 -18.5 51 - NNE 32 39 17 21 984.1 - -
26/03:30pm -10.5 -19.0 -18.6 51 - NE 26 32 14 17 984.0 - -
26/03:00pm -10.8 -18.1 -18.5 53 - NE 20 26 11 14 984.1 - -
26/02:30pm -10.9 -18.2 -17.9 56 - NE 20 28 11 15 984.2 - -
26/02:00pm -11.3 -18.5 -19.2 52 - ENE 19 24 10 13 984.2 984.4 -
26/01:30pm -11.7 -18.1 -20.2 49 - ENE 15 19 8 10 984.1 - -
26/01:00pm -11.7 -18.5 -20.2 49 - NE 17 26 9 14 984.1 - -
26/12:30pm -11.8 -19.2 -20.3 49 - NE 20 26 11 14 983.9 - -
26/12:00pm -12.0 -19.8 -20.7 48 - NE 22 30 12 16 983.9 - -
26/11:30am -12.1 -19.9 -20.4 50 - NE 22 28 12 15 983.8 - -
26/11:00am -11.9 -18.7 -20.2 50 - NE 17 24 9 13 983.7 983.9 -
26/10:30am -11.7 -17.8 -20.5 48 - ENE 13 17 7 9 983.6 - -
26/10:00am -11.5 -18.3 -20.8 46 - ENE 17 19 9 10 983.3 - -
26/09:30am -11.2 -16.9 -20.5 46 - NE 11 15 6 8 983.6 - -
26/09:00am -11.5 -16.8 -19.4 52 - ESE 9 11 5 6 983.6 - -
26/08:30am -11.6 -16.9 -19.4 52 - ESE 9 13 5 7 983.6 - -
26/08:00am -11.6 -17.6 -19.7 51 - ESE 13 17 7 9 983.6 983.8 -
26/07:30am -10.8 -18.0 -19.6 48 - ENE 19 22 10 12 983.5 - -
26/07:00am -10.7 -17.9 -19.1 50 - ENE 19 22 10 12 983.7 - -
26/06:30am -11.0 -16.6 -18.9 52 - ESE 11 15 6 8 983.8 - -
26/06:00am -10.6 -16.2 -18.1 54 - E 11 15 6 8 983.9 - -
26/05:30am -10.0 -16.7 -17.5 54 - NE 17 20 9 11 984.0 - -
26/05:00am -10.0 -16.7 -16.9 57 - NE 17 20 9 11 984.1 984.3 -
26/04:30am -9.8 -17.1 -16.7 57 - NNE 20 24 11 13 984.3 - -
26/04:00am -9.7 -16.7 -16.4 58 - NNE 19 24 10 13 984.4 - -
26/03:30am -10.4 -15.2 -16.3 62 - E 7 11 4 6 984.7 - -
26/03:00am -10.8 -16.4 -17.8 56 - SE 11 15 6 8 984.9 - -
26/02:30am -10.6 -16.2 -17.9 55 - ESE 11 13 6 7 985.2 - -
26/02:00am -10.1 -16.0 -17.2 56 - ESE 13 15 7 8 985.4 985.6 -
26/01:30am -9.9 -15.8 -15.8 62 - SSE 13 17 7 9 985.7 - -
26/01:00am -9.4 -14.5 -16.3 57 - SE 9 11 5 6 986.0 - -
26/12:30am -9.1 -13.9 -16.5 55 - SE 7 11 4 6 986.3 - -
26/12:00am -8.8 -13.4 -17.5 49 - SE 6 9 3 5 986.5 - -
 
Date/Time
EDT
Temp
°C
App
Temp
°C
Dew
Point
°C
Rel
Hum
%
Delta-T
°C
Wind Press
QNH
hPa
Press
MSL
hPa
Rain since
9am
mm
Dir  Spd
km/h
Gust
km/h
Spd
kts
Gust
kts
25/11:30pm -8.7 -13.9 -18.4 45 - E 9 11 5 6 986.8 - -
25/11:00pm -8.6 -13.8 -18.4 45 - E 9 11 5 6 987.1 987.4 -
25/10:30pm -8.5 -13.3 -17.8 47 - ENE 7 11 4 6 987.5 - -
25/10:00pm -8.6 -13.8 -17.8 47 - ENE 9 11 5 6 987.4 - -
25/09:30pm -8.5 -13.3 -17.5 48 - ENE 7 11 4 6 988.0 - -
25/09:00pm -8.5 -13.3 -18.0 46 - NE 7 11 4 6 988.3 - -
25/08:30pm -8.5 -13.4 -19.1 42 - ENE 7 11 4 6 988.6 - -
25/08:00pm -8.5 -13.2 -19.1 42 - ESE 6 7 3 4 988.9 989.2 -
25/07:30pm -8.5 -13.2 -19.1 42 - SSE 6 7 3 4 989.1 - -
25/07:00pm -8.6 -13.3 -18.9 43 - ESE 6 11 3 6 989.3 - -
25/06:30pm -8.7 -13.9 -18.7 44 - ESE 9 11 5 6 989.5 - -
25/06:00pm -8.8 -13.7 -18.8 44 - ESE 7 9 4 5 989.7 - -
25/05:30pm -9.1 -13.8 -18.8 45 - E 6 9 3 5 989.9 - -
25/05:00pm -9.4 -14.3 -19.1 45 - E 7 9 4 5 990.1 990.4 -
25/04:30pm -9.6 -14.5 -18.5 48 - E 7 9 4 5 990.3 - -
25/04:00pm -9.9 -15.1 -18.3 50 - ESE 9 11 5 6 990.5 - -

Other Formats:

Comma delimited format used in spreadsheet applications
http://www.bom.gov.au/fwo/IDT60803/IDT60803.89571.axf

JavaScript Object Notation format (JSON) in row-major order
http://www.bom.gov.au/fwo/IDT60803/IDT60803.89571.json